createdAt,value
2017-12-11T00:00:36.444Z,88.94
2017-12-11T00:01:36.820Z,88.92
2017-12-11T00:02:43.245Z,88.94
2017-12-11T00:03:50.304Z,88.96
2017-12-11T00:04:57.199Z,88.96
2017-12-11T00:06:04.100Z,88.98
2017-12-11T00:07:11.117Z,89.00
2017-12-11T00:08:18.117Z,89.03
2017-12-11T00:09:25.107Z,89.05
2017-12-11T00:10:32.245Z,89.06
2017-12-11T00:11:39.199Z,89.09
2017-12-11T00:12:45.901Z,89.10
2017-12-11T00:13:52.906Z,89.12
2017-12-11T00:14:59.811Z,89.13
2017-12-11T00:16:07.020Z,89.15
2017-12-11T00:17:13.984Z,89.17
2017-12-11T00:18:20.980Z,89.21
2017-12-11T00:19:28.013Z,89.21
2017-12-11T00:20:35.040Z,89.19
2017-12-11T00:21:41.963Z,89.15
2017-12-11T00:22:48.894Z,89.12
2017-12-11T00:23:55.993Z,89.09
2017-12-11T00:25:02.892Z,89.09
2017-12-11T00:26:09.968Z,89.08
2017-12-11T00:27:16.836Z,89.03
2017-12-11T00:28:23.729Z,88.97
2017-12-11T00:29:30.936Z,88.91
2017-12-11T00:30:37.368Z,88.85
2017-12-11T00:31:44.536Z,88.83
2017-12-11T00:32:51.385Z,88.76
2017-12-11T00:33:58.328Z,88.74
2017-12-11T00:35:05.369Z,88.67
2017-12-11T00:36:12.280Z,88.67
2017-12-11T00:37:19.132Z,88.63
2017-12-11T00:38:26.166Z,88.64
2017-12-11T00:39:33.052Z,88.61
2017-12-11T00:40:40.082Z,88.57
2017-12-11T00:41:47.106Z,88.52
2017-12-11T00:42:54.080Z,88.49
2017-12-11T00:44:01.056Z,88.46
2017-12-11T00:45:08.102Z,88.40
2017-12-11T00:46:14.992Z,88.39
2017-12-11T00:47:21.963Z,88.35
2017-12-11T00:48:29.100Z,88.28
2017-12-11T00:49:36.086Z,88.23
2017-12-11T00:50:43.080Z,88.22
2017-12-11T00:51:50.091Z,88.27
2017-12-11T00:52:57.192Z,88.30
2017-12-11T00:54:04.160Z,88.31
2017-12-11T00:55:11.031Z,88.30
2017-12-11T00:56:17.928Z,88.28
2017-12-11T00:57:24.796Z,88.24
2017-12-11T00:58:31.733Z,88.22
2017-12-11T00:59:38.740Z,88.16
2017-12-11T01:00:45.666Z,88.09
2017-12-11T01:01:52.597Z,88.06
2017-12-11T01:02:59.600Z,88.06
2017-12-11T01:04:06.716Z,88.00
2017-12-11T01:05:13.743Z,88.01
2017-12-11T01:06:20.948Z,87.97
2017-12-11T01:07:27.992Z,87.94
2017-12-11T01:08:35.033Z,87.95
2017-12-11T01:09:42.250Z,87.90
2017-12-11T01:10:48.917Z,87.90
2017-12-11T01:11:56.097Z,87.88
2017-12-11T01:13:03.081Z,87.83
2017-12-11T01:14:09.962Z,87.80
2017-12-11T01:15:17.032Z,87.73
2017-12-11T01:16:24.063Z,87.68
2017-12-11T01:17:31.145Z,87.67
2017-12-11T01:18:38.317Z,87.65
2017-12-11T01:19:45.365Z,87.62
2017-12-11T01:20:52.356Z,87.60
2017-12-11T01:21:59.333Z,87.58
2017-12-11T01:23:06.292Z,87.55
2017-12-11T01:24:13.388Z,87.48
2017-12-11T01:25:20.329Z,87.45
2017-12-11T01:26:27.597Z,87.42
2017-12-11T01:27:34.769Z,87.41
2017-12-11T01:28:41.766Z,87.35
2017-12-11T01:29:48.868Z,87.28
2017-12-11T01:30:55.808Z,87.26
2017-12-11T01:32:02.857Z,87.21
2017-12-11T01:33:10.085Z,87.16
2017-12-11T01:34:17.309Z,87.14
2017-12-11T01:35:24.266Z,87.10
2017-12-11T01:36:31.285Z,87.10
2017-12-11T01:37:37.732Z,87.07
2017-12-11T01:38:44.802Z,87.06
2017-12-11T01:39:51.872Z,87.02
2017-12-11T01:40:58.868Z,87.02
2017-12-11T01:42:05.684Z,87.02
2017-12-11T01:43:12.782Z,87.03
2017-12-11T01:44:19.965Z,86.98
2017-12-11T01:45:27.045Z,86.96
2017-12-11T01:46:33.707Z,86.93
2017-12-11T01:47:40.826Z,86.85
2017-12-11T01:48:47.867Z,86.82
2017-12-11T01:49:54.845Z,86.83
2017-12-11T01:51:01.628Z,86.77
2017-12-11T01:52:08.622Z,86.77
2017-12-11T01:53:15.684Z,86.76
2017-12-11T01:54:22.892Z,86.73
2017-12-11T01:55:29.848Z,86.69
2017-12-11T01:56:36.931Z,86.65
2017-12-11T01:57:43.987Z,86.61
2017-12-11T01:58:50.983Z,86.61
2017-12-11T01:59:57.773Z,86.61
2017-12-11T02:01:04.813Z,86.59
2017-12-11T02:02:11.721Z,86.59
2017-12-11T02:03:18.972Z,86.54
2017-12-11T02:04:25.856Z,86.53
2017-12-11T02:05:32.741Z,86.51
2017-12-11T02:06:40.008Z,86.46
2017-12-11T02:07:47.024Z,86.48
2017-12-11T02:08:54.148Z,86.43
2017-12-11T02:10:01.272Z,86.43
2017-12-11T02:11:08.356Z,86.38
2017-12-11T02:12:15.185Z,86.38
2017-12-11T02:13:22.301Z,86.31
2017-12-11T02:14:29.101Z,86.31
2017-12-11T02:15:36.104Z,86.26
2017-12-11T02:16:42.991Z,86.17
2017-12-11T02:17:49.861Z,86.14
2017-12-11T02:18:56.668Z,86.14
2017-12-11T02:20:03.569Z,86.08
2017-12-11T02:21:10.669Z,86.04
2017-12-11T02:22:17.641Z,85.99
2017-12-11T02:23:24.549Z,85.97
2017-12-11T02:24:31.620Z,85.94
2017-12-11T02:25:38.560Z,85.89
2017-12-11T02:26:45.444Z,85.81
2017-12-11T02:27:52.429Z,85.78
2017-12-11T02:28:59.497Z,85.76
2017-12-11T02:30:06.216Z,85.74
2017-12-11T02:31:13.236Z,85.72
2017-12-11T02:32:20.345Z,85.68
2017-12-11T02:33:27.453Z,85.69
2017-12-11T02:34:34.588Z,85.63
2017-12-11T02:35:41.492Z,85.63
2017-12-11T02:36:48.473Z,85.63
2017-12-11T02:37:55.465Z,85.63
2017-12-11T02:39:02.610Z,85.59
2017-12-11T02:40:09.580Z,85.58
2017-12-11T02:41:16.672Z,85.51
2017-12-11T02:42:23.676Z,85.50
2017-12-11T02:43:30.713Z,85.44
2017-12-11T02:44:38.042Z,85.47
2017-12-11T02:45:44.571Z,85.41
2017-12-11T02:46:51.596Z,85.40
2017-12-11T02:47:58.628Z,85.41
2017-12-11T02:49:05.633Z,85.38
2017-12-11T02:50:12.716Z,85.38
2017-12-11T02:51:19.781Z,85.35
2017-12-11T02:52:26.652Z,85.31
2017-12-11T02:53:33.585Z,85.27
2017-12-11T02:54:40.605Z,85.27
2017-12-11T02:55:47.586Z,85.22
2017-12-11T02:56:54.537Z,85.19
2017-12-11T02:58:01.405Z,85.18
2017-12-11T02:59:08.285Z,85.16
2017-12-11T03:00:15.260Z,85.09
2017-12-11T03:01:22.125Z,85.09
2017-12-11T03:02:28.914Z,85.04
2017-12-11T03:03:35.973Z,85.00
2017-12-11T03:04:43.116Z,84.96
2017-12-11T03:05:50.305Z,84.94
2017-12-11T03:06:57.332Z,84.88
2017-12-11T03:08:04.408Z,84.83
2017-12-11T03:09:11.453Z,84.78
2017-12-11T03:10:18.296Z,84.69
2017-12-11T03:11:25.460Z,84.62
2017-12-11T03:12:32.352Z,84.57
2017-12-11T03:13:39.284Z,84.55
2017-12-11T03:14:46.224Z,84.49
2017-12-11T03:15:53.144Z,84.41
2017-12-11T03:17:00.216Z,84.37
2017-12-11T03:18:07.018Z,84.34
2017-12-11T03:19:13.920Z,84.32
2017-12-11T03:20:20.796Z,84.28
2017-12-11T03:21:27.773Z,84.25
2017-12-11T03:22:34.539Z,84.19
2017-12-11T03:23:41.712Z,84.12
2017-12-11T03:24:48.773Z,84.11
2017-12-11T03:25:55.482Z,84.08
2017-12-11T03:27:02.557Z,84.05
2017-12-11T03:28:09.437Z,84.01
2017-12-11T03:29:16.495Z,83.96
2017-12-11T03:30:23.651Z,83.91
2017-12-11T03:31:30.232Z,83.91
2017-12-11T03:32:37.321Z,83.89
2017-12-11T03:33:44.180Z,83.81
2017-12-11T03:34:51.312Z,83.79
2017-12-11T03:35:58.193Z,83.80
2017-12-11T03:37:05.227Z,83.72
2017-12-11T03:38:11.996Z,83.66
2017-12-11T03:39:18.886Z,83.54
2017-12-11T03:40:26.084Z,83.49
2017-12-11T03:41:33.039Z,83.45
2017-12-11T03:42:40.208Z,83.39
2017-12-11T03:43:47.124Z,83.34
2017-12-11T03:44:53.965Z,83.29
2017-12-11T03:46:00.972Z,83.26
2017-12-11T03:47:07.708Z,83.24
2017-12-11T03:48:14.700Z,83.20
2017-12-11T03:49:21.645Z,83.23
2017-12-11T03:50:28.548Z,83.21
2017-12-11T03:51:35.632Z,83.16
2017-12-11T03:52:42.880Z,83.16
2017-12-11T03:53:49.901Z,83.13
2017-12-11T03:54:56.928Z,83.09
2017-12-11T03:56:03.852Z,83.08
2017-12-11T03:57:10.765Z,83.02
2017-12-11T03:58:17.669Z,83.01
2017-12-11T03:59:24.740Z,82.94
2017-12-11T04:00:31.800Z,82.97
2017-12-11T04:01:38.695Z,82.94
2017-12-11T04:02:45.633Z,82.94
2017-12-11T04:03:52.506Z,82.95
2017-12-11T04:04:59.416Z,82.89
2017-12-11T04:06:06.360Z,82.89
2017-12-11T04:07:13.196Z,82.91
2017-12-11T04:08:20.196Z,82.90
2017-12-11T04:09:27.108Z,82.89
2017-12-11T04:10:34.264Z,82.91
2017-12-11T04:11:41.204Z,82.93
2017-12-11T04:12:48.177Z,82.92
2017-12-11T04:13:55.065Z,82.89
2017-12-11T04:15:01.829Z,82.88
2017-12-11T04:16:08.877Z,82.85
2017-12-11T04:17:15.712Z,82.84
2017-12-11T04:18:23.127Z,82.82
2017-12-11T04:19:29.758Z,82.86
2017-12-11T04:20:38.352Z,82.86
2017-12-11T04:21:43.893Z,82.90
2017-12-11T04:24:35.605Z,82.83
2017-12-11T04:25:42.520Z,82.86
2017-12-11T04:26:49.433Z,82.83
2017-12-11T04:27:56.367Z,82.81
2017-12-11T04:29:03.217Z,82.79
2017-12-11T04:30:10.344Z,82.77
2017-12-11T04:31:17.206Z,82.79
2017-12-11T04:32:23.869Z,82.80
2017-12-11T04:33:30.799Z,82.79
2017-12-11T04:34:37.677Z,82.80
2017-12-11T04:35:44.820Z,82.78
2017-12-11T04:36:51.305Z,82.77
2017-12-11T04:37:58.262Z,82.82
2017-12-11T04:39:05.311Z,82.76
2017-12-11T04:40:12.211Z,82.81
2017-12-11T04:41:19.076Z,82.79
2017-12-11T04:42:26.045Z,82.82
2017-12-11T04:43:33.080Z,82.85
2017-12-11T04:44:39.961Z,82.85
2017-12-11T04:45:47.144Z,82.86
2017-12-11T04:46:54.341Z,82.84
2017-12-11T04:48:01.240Z,82.83
2017-12-11T04:49:08.117Z,82.83
2017-12-11T04:50:15.228Z,82.86
2017-12-11T04:51:22.127Z,82.88
2017-12-11T04:52:29.273Z,82.90
2017-12-11T04:53:35.698Z,82.92
2017-12-11T04:54:42.733Z,82.92
2017-12-11T04:55:49.859Z,82.93
2017-12-11T04:56:56.948Z,82.96
2017-12-11T04:58:04.051Z,82.96
2017-12-11T04:59:10.929Z,83.01
2017-12-11T05:00:18.096Z,83.02
2017-12-11T05:01:24.963Z,83.04
2017-12-11T05:02:31.872Z,83.06
2017-12-11T05:03:38.972Z,83.07
2017-12-11T05:04:46.004Z,83.09
2017-12-11T05:05:52.867Z,83.11
2017-12-11T05:07:00.014Z,83.14
2017-12-11T05:08:06.895Z,83.17
2017-12-11T05:09:13.656Z,83.20
2017-12-11T05:10:20.892Z,83.23
2017-12-11T05:11:27.859Z,83.25
2017-12-11T05:12:34.716Z,83.25
2017-12-11T05:13:41.739Z,83.27
2017-12-11T05:14:48.908Z,83.30
2017-12-11T05:15:55.927Z,83.33
2017-12-11T05:17:03.040Z,83.36
2017-12-11T05:18:10.012Z,83.35
2017-12-11T05:19:16.832Z,83.37
2017-12-11T05:20:23.808Z,83.39
2017-12-11T05:21:30.750Z,83.43
2017-12-11T05:22:37.699Z,83.44
2017-12-11T05:23:44.624Z,83.42
2017-12-11T05:24:51.600Z,83.43
2017-12-11T05:25:58.612Z,83.49
2017-12-11T05:27:05.719Z,83.55
2017-12-11T05:28:12.699Z,83.63
2017-12-11T05:29:19.604Z,83.64
2017-12-11T05:30:26.490Z,83.72
2017-12-11T05:31:33.588Z,83.70
2017-12-11T05:32:40.512Z,83.74
2017-12-11T05:33:47.416Z,83.78
2017-12-11T05:34:54.536Z,83.82
2017-12-11T05:36:01.444Z,83.87
2017-12-11T05:37:08.405Z,83.87
2017-12-11T05:38:15.375Z,83.91
2017-12-11T05:39:22.545Z,83.93
2017-12-11T05:40:29.468Z,83.98
2017-12-11T05:41:36.791Z,84.05
2017-12-11T05:42:43.579Z,84.08
2017-12-11T05:43:50.544Z,84.15
2017-12-11T05:44:57.506Z,84.20
2017-12-11T05:46:04.501Z,84.26
2017-12-11T05:47:11.546Z,84.32
2017-12-11T05:48:18.628Z,84.36
2017-12-11T05:49:25.626Z,84.38
2017-12-11T05:50:32.545Z,84.48
2017-12-11T05:51:39.619Z,84.49
2017-12-11T05:52:46.355Z,84.53
2017-12-11T05:53:53.361Z,84.58
2017-12-11T05:55:00.399Z,84.67
2017-12-11T05:56:07.376Z,84.70
2017-12-11T05:57:14.399Z,84.75
2017-12-11T05:58:21.527Z,84.80
2017-12-11T05:59:28.506Z,84.89
2017-12-11T06:00:35.693Z,84.96
2017-12-11T06:01:42.683Z,85.00
2017-12-11T06:02:49.680Z,85.08
2017-12-11T06:03:56.483Z,85.11
2017-12-11T06:05:03.572Z,85.12
2017-12-11T06:06:10.610Z,85.18
2017-12-11T06:07:17.665Z,85.27
2017-12-11T06:08:24.603Z,85.36
2017-12-11T06:09:31.820Z,85.39
2017-12-11T06:10:38.840Z,85.47
2017-12-11T06:11:45.815Z,85.50
2017-12-11T06:12:52.805Z,85.59
2017-12-11T06:14:01.010Z,85.65
2017-12-11T06:15:10.183Z,85.71
2017-12-11T06:16:13.929Z,85.73
2017-12-11T06:17:20.835Z,85.78
2017-12-11T06:18:28.275Z,85.86
2017-12-11T06:19:34.788Z,85.92
2017-12-11T06:20:41.936Z,85.93
2017-12-11T06:21:48.909Z,86.00
2017-12-11T06:22:56.121Z,86.03
2017-12-11T06:24:02.710Z,86.09
2017-12-11T06:25:09.429Z,86.17
2017-12-11T06:26:16.612Z,86.22
2017-12-11T06:27:23.148Z,86.26
2017-12-11T06:28:30.156Z,86.33
2017-12-11T06:29:37.392Z,86.38
2017-12-11T06:30:44.255Z,86.44
2017-12-11T06:31:51.348Z,86.48
2017-12-11T06:32:58.255Z,86.55
2017-12-11T06:34:05.395Z,86.61
2017-12-11T06:35:12.370Z,86.63
2017-12-11T06:36:19.506Z,86.67
2017-12-11T06:37:26.641Z,86.70
2017-12-11T06:38:33.811Z,86.75
2017-12-11T06:39:40.716Z,86.82
2017-12-11T06:40:47.824Z,86.86
2017-12-11T06:41:54.796Z,86.92
2017-12-11T06:43:01.665Z,86.96
2017-12-11T06:44:08.510Z,86.99
2017-12-11T06:45:15.496Z,87.04
2017-12-11T06:46:22.617Z,87.05
2017-12-11T06:47:29.511Z,87.11
2017-12-11T06:48:36.550Z,87.18
2017-12-11T06:49:43.705Z,87.23
2017-12-11T06:50:50.868Z,87.29
2017-12-11T06:51:57.821Z,87.38
2017-12-11T06:53:04.804Z,87.43
2017-12-11T06:54:11.860Z,87.45
2017-12-11T06:55:19.019Z,87.50
2017-12-11T06:56:25.555Z,87.54
2017-12-11T06:57:32.657Z,87.56
2017-12-11T06:58:39.764Z,87.64
2017-12-11T06:59:46.794Z,87.66
2017-12-11T07:00:53.779Z,87.68
2017-12-11T07:02:00.660Z,87.75
2017-12-11T07:03:08.044Z,87.76
2017-12-11T07:04:15.133Z,87.79
2017-12-11T07:05:22.036Z,87.83
2017-12-11T07:06:29.092Z,87.84
2017-12-11T07:07:36.180Z,87.88
2017-12-11T07:08:43.035Z,87.93
2017-12-11T07:09:50.247Z,87.97
2017-12-11T07:10:56.689Z,88.03
2017-12-11T07:12:03.880Z,88.01
2017-12-11T07:13:10.934Z,88.08
2017-12-11T07:14:18.061Z,88.11
2017-12-11T07:15:25.128Z,88.12
2017-12-11T07:16:32.100Z,88.18
2017-12-11T07:17:39.156Z,88.22
2017-12-11T07:18:46.129Z,88.25
2017-12-11T07:19:53.360Z,88.28
2017-12-11T07:20:59.869Z,88.31
2017-12-11T07:22:06.985Z,88.32
2017-12-11T07:23:13.708Z,88.35
2017-12-11T07:24:20.675Z,88.38
2017-12-11T07:25:27.910Z,88.40
2017-12-11T07:26:34.808Z,88.43
2017-12-11T07:27:41.390Z,88.47
2017-12-11T07:28:48.324Z,88.48
2017-12-11T07:29:55.616Z,88.51
2017-12-11T07:31:02.536Z,88.56
2017-12-11T07:32:09.494Z,88.59
2017-12-11T07:33:16.613Z,88.62
2017-12-11T07:34:23.768Z,88.62
2017-12-11T07:35:30.465Z,88.65
2017-12-11T07:36:37.577Z,88.70
2017-12-11T07:37:44.452Z,88.70
2017-12-11T07:38:51.383Z,88.74
2017-12-11T07:39:58.061Z,88.74
2017-12-11T07:41:05.052Z,88.77
2017-12-11T07:42:11.968Z,88.79
2017-12-11T07:43:19.279Z,88.83
2017-12-11T07:44:26.351Z,88.87
2017-12-11T07:45:33.127Z,88.87
2017-12-11T07:46:40.244Z,88.91
2017-12-11T07:47:46.746Z,88.91
2017-12-11T07:48:53.791Z,88.93
2017-12-11T07:50:00.942Z,88.93
2017-12-11T07:51:08.003Z,88.97
2017-12-11T07:52:15.153Z,88.99
2017-12-11T07:53:22.225Z,89.00
2017-12-11T07:54:29.308Z,89.01
2017-12-11T07:55:36.248Z,89.02
2017-12-11T07:56:43.366Z,89.03
2017-12-11T07:57:50.330Z,89.07
2017-12-11T07:58:57.477Z,89.06
2017-12-11T08:00:04.464Z,89.05
2017-12-11T08:01:11.335Z,89.11
2017-12-11T08:02:18.412Z,89.13
2017-12-11T08:03:25.427Z,89.18
2017-12-11T08:04:32.496Z,89.19
2017-12-11T08:05:39.526Z,89.20
2017-12-11T08:06:46.780Z,89.26
2017-12-11T08:07:53.400Z,89.27
2017-12-11T08:09:00.521Z,89.28
2017-12-11T08:10:07.687Z,89.29
2017-12-11T08:11:14.768Z,89.31
2017-12-11T08:12:21.716Z,89.32
2017-12-11T08:13:28.794Z,89.36
2017-12-11T08:14:35.824Z,89.36
2017-12-11T08:15:43.041Z,89.37
2017-12-11T08:16:49.984Z,89.38
2017-12-11T08:17:57.092Z,89.40
2017-12-11T08:19:04.247Z,89.44
2017-12-11T08:20:11.248Z,89.44
2017-12-11T08:21:18.313Z,89.47
2017-12-11T08:22:25.405Z,89.50
2017-12-11T08:23:32.268Z,89.53
2017-12-11T08:24:39.224Z,89.53
2017-12-11T08:25:46.412Z,89.54
2017-12-11T08:26:52.881Z,89.55
2017-12-11T08:27:59.929Z,89.56
2017-12-11T08:29:07.084Z,89.61
2017-12-11T08:30:14.031Z,89.62
2017-12-11T08:31:21.953Z,89.64
2017-12-11T08:32:28.174Z,89.69
2017-12-11T08:33:34.850Z,89.68
2017-12-11T08:34:44.704Z,89.73
2017-12-11T08:35:48.434Z,89.74
2017-12-11T08:36:56.510Z,89.78
2017-12-11T08:38:02.381Z,89.76
2017-12-11T08:39:09.111Z,89.78
2017-12-11T08:40:16.236Z,89.83
2017-12-11T08:41:22.971Z,89.86
2017-12-11T08:42:29.935Z,89.85
2017-12-11T08:43:36.967Z,89.85
2017-12-11T08:44:43.999Z,89.87
2017-12-11T08:45:50.791Z,89.92
2017-12-11T08:46:57.685Z,89.98
2017-12-11T08:48:04.770Z,89.96
2017-12-11T08:49:11.956Z,89.98
2017-12-11T08:50:19.030Z,89.98
2017-12-11T08:51:26.021Z,89.99
2017-12-11T08:52:33.353Z,89.99
2017-12-11T08:53:40.448Z,89.99
2017-12-11T08:54:47.457Z,90.02
2017-12-11T08:55:54.414Z,90.05
2017-12-11T08:57:01.645Z,90.06
2017-12-11T08:58:08.764Z,90.09
2017-12-11T08:59:15.465Z,90.12
2017-12-11T09:00:21.934Z,90.11
2017-12-11T09:01:29.089Z,90.14
2017-12-11T09:02:35.953Z,90.15
2017-12-11T09:03:43.197Z,90.19
2017-12-11T09:04:50.160Z,90.20
2017-12-11T09:05:57.176Z,90.20
2017-12-11T09:07:04.252Z,90.24
2017-12-11T09:08:11.308Z,90.29
2017-12-11T09:09:18.361Z,90.34
2017-12-11T09:10:25.453Z,90.34
2017-12-11T09:11:32.553Z,90.36
2017-12-11T09:12:39.627Z,90.39
2017-12-11T09:13:46.534Z,90.40
2017-12-11T09:14:53.784Z,90.39
2017-12-11T09:16:00.277Z,90.41
2017-12-11T09:17:07.377Z,90.42
2017-12-11T09:18:14.564Z,90.42
2017-12-11T09:19:21.780Z,90.46
2017-12-11T09:20:28.503Z,90.47
2017-12-11T09:21:35.724Z,90.48
2017-12-11T09:22:42.300Z,90.54
2017-12-11T09:23:49.027Z,90.56
2017-12-11T09:24:56.355Z,90.56
2017-12-11T09:26:03.432Z,90.58
2017-12-11T09:27:10.508Z,90.58
2017-12-11T09:28:17.224Z,90.63
2017-12-11T09:29:24.368Z,90.64
2017-12-11T09:30:31.489Z,90.69
2017-12-11T09:31:38.471Z,90.75
2017-12-11T09:32:45.523Z,90.79
2017-12-11T09:33:52.679Z,90.81
2017-12-11T09:34:59.402Z,90.82
2017-12-11T09:36:09.343Z,90.83
2017-12-11T09:38:21.825Z,90.93
2017-12-11T09:40:35.360Z,90.93
2017-12-11T09:41:49.698Z,90.94
2017-12-11T09:42:47.880Z,90.92
2017-12-11T09:43:54.971Z,90.91
2017-12-11T09:45:01.494Z,90.90
2017-12-11T09:46:08.228Z,90.87
2017-12-11T09:47:15.357Z,90.88
2017-12-11T09:48:21.789Z,90.88
2017-12-11T09:49:29.036Z,90.90
2017-12-11T09:50:36.002Z,90.88
2017-12-11T09:51:42.896Z,90.90
2017-12-11T09:52:50.101Z,90.90
2017-12-11T09:53:56.700Z,90.91
2017-12-11T09:55:03.844Z,90.93
2017-12-11T09:56:10.860Z,90.93
2017-12-11T09:57:17.800Z,90.90
2017-12-11T09:58:24.877Z,90.95
2017-12-11T09:59:31.987Z,90.93
2017-12-11T10:00:38.951Z,90.97
2017-12-11T10:01:46.339Z,90.98
2017-12-11T10:02:52.750Z,90.98
2017-12-11T10:03:59.856Z,91.01
2017-12-11T10:05:06.312Z,91.02
2017-12-11T10:06:13.304Z,91.02
2017-12-11T10:07:20.512Z,91.03
2017-12-11T10:08:27.515Z,91.01
2017-12-11T10:09:34.500Z,91.02
2017-12-11T10:10:41.221Z,91.02
2017-12-11T10:11:48.454Z,91.02
2017-12-11T10:12:55.450Z,91.01
2017-12-11T10:14:02.724Z,91.03
2017-12-11T10:15:09.592Z,91.02
2017-12-11T10:16:16.393Z,91.03
2017-12-11T10:17:23.313Z,91.00
2017-12-11T10:18:30.224Z,91.02
2017-12-11T10:19:36.984Z,91.06
2017-12-11T10:20:43.887Z,91.04
2017-12-11T10:21:50.740Z,91.03
2017-12-11T10:22:57.790Z,91.06
2017-12-11T10:24:04.855Z,91.07
2017-12-11T10:25:11.848Z,91.08
2017-12-11T10:26:18.896Z,91.10
2017-12-11T10:27:25.682Z,91.13
2017-12-11T10:28:32.628Z,91.13
2017-12-11T10:29:39.612Z,91.15
2017-12-11T10:30:46.724Z,91.18
2017-12-11T10:31:53.692Z,91.18
2017-12-11T10:33:00.944Z,91.19
2017-12-11T10:34:07.969Z,91.20
2017-12-11T10:35:15.068Z,91.25
2017-12-11T10:36:22.135Z,91.24
2017-12-11T10:37:29.165Z,91.24
2017-12-11T10:38:36.173Z,91.27
2017-12-11T10:39:43.075Z,91.29
2017-12-11T10:40:50.112Z,91.33
2017-12-11T10:41:57.064Z,91.32
2017-12-11T10:43:04.089Z,91.33
2017-12-11T10:44:11.131Z,91.35
2017-12-11T10:45:18.072Z,91.36
2017-12-11T10:46:25.137Z,91.34
2017-12-11T10:47:32.139Z,91.40
2017-12-11T10:48:39.098Z,91.43
2017-12-11T10:49:46.066Z,91.44
2017-12-11T10:50:53.284Z,91.43
2017-12-11T10:52:00.172Z,91.46
2017-12-11T10:53:07.153Z,91.48
2017-12-11T10:54:14.105Z,91.49
2017-12-11T10:55:21.003Z,91.50
2017-12-11T10:56:28.049Z,91.53
2017-12-11T10:57:35.095Z,91.52
2017-12-11T10:58:42.064Z,91.55
2017-12-11T10:59:49.215Z,91.54
2017-12-11T11:00:56.468Z,91.61
2017-12-11T11:02:02.925Z,91.65
2017-12-11T11:03:09.920Z,91.63
2017-12-11T11:04:16.904Z,91.65
2017-12-11T11:05:24.136Z,91.65
2017-12-11T11:06:30.768Z,91.66
2017-12-11T11:07:37.732Z,91.68
2017-12-11T11:08:44.688Z,91.69
2017-12-11T11:09:51.733Z,91.71
2017-12-11T11:10:59.101Z,91.73
2017-12-11T11:12:05.765Z,91.72
2017-12-11T11:13:12.945Z,91.75
2017-12-11T11:14:20.092Z,91.75
2017-12-11T11:15:27.224Z,91.77
2017-12-11T11:16:34.328Z,91.77
2017-12-11T11:17:41.196Z,91.80
2017-12-11T11:18:48.185Z,91.80
2017-12-11T11:19:55.177Z,91.81
2017-12-11T11:21:02.008Z,91.84
2017-12-11T11:22:09.123Z,91.88
2017-12-11T11:23:16.100Z,91.85
2017-12-11T11:24:23.185Z,91.89
2017-12-11T11:25:30.255Z,91.88
2017-12-11T11:26:37.383Z,91.88
2017-12-11T11:27:44.096Z,91.92
2017-12-11T11:28:51.068Z,91.93
2017-12-11T11:29:58.216Z,91.95
2017-12-11T11:31:05.291Z,92.00
2017-12-11T11:32:12.324Z,91.99
2017-12-11T11:33:19.361Z,92.00
2017-12-11T11:34:26.138Z,92.01
2017-12-11T11:35:33.080Z,92.01
2017-12-11T11:36:40.254Z,92.02
2017-12-11T11:37:46.905Z,92.02
2017-12-11T11:38:53.886Z,92.04
2017-12-11T11:40:01.043Z,92.07
2017-12-11T11:41:08.132Z,92.10
2017-12-11T11:42:15.260Z,92.12
2017-12-11T11:43:22.529Z,92.15
2017-12-11T11:44:34.356Z,92.14
2017-12-11T11:45:36.272Z,92.14
2017-12-11T11:46:43.326Z,92.14
2017-12-11T11:47:50.390Z,92.15
2017-12-11T11:48:57.304Z,92.19
2017-12-11T11:50:04.549Z,92.18
2017-12-11T11:51:11.595Z,92.20
2017-12-11T11:52:18.545Z,92.23
2017-12-11T11:53:25.424Z,92.23
2017-12-11T11:54:32.513Z,92.27
2017-12-11T11:55:39.556Z,92.28
2017-12-11T11:56:46.785Z,92.30
2017-12-11T11:57:53.268Z,92.30
2017-12-11T11:59:00.380Z,92.32
2017-12-11T12:00:07.541Z,92.33
2017-12-11T12:01:14.460Z,92.35
2017-12-11T12:02:21.672Z,92.36
2017-12-11T12:03:28.244Z,92.39
2017-12-11T12:04:35.320Z,92.40
2017-12-11T12:05:42.455Z,92.38
2017-12-11T12:06:49.551Z,92.40
2017-12-11T12:07:56.504Z,92.40
2017-12-11T12:09:03.632Z,92.39
2017-12-11T12:10:10.325Z,92.40
2017-12-11T12:11:17.518Z,92.38
2017-12-11T12:12:24.590Z,92.38
2017-12-11T12:13:31.224Z,92.37
2017-12-11T12:14:38.272Z,92.37
2017-12-11T12:15:45.320Z,92.40
2017-12-11T12:16:52.105Z,92.40
2017-12-11T12:17:59.022Z,92.40
2017-12-11T12:19:06.262Z,92.40
2017-12-11T12:20:13.168Z,92.43
2017-12-11T12:21:20.285Z,92.41
2017-12-11T12:22:27.376Z,92.43
2017-12-11T12:23:34.413Z,92.42
2017-12-11T12:24:41.029Z,92.42
2017-12-11T12:25:47.992Z,92.44
2017-12-11T12:26:55.048Z,92.45
2017-12-11T12:28:01.696Z,92.49
2017-12-11T12:29:08.533Z,92.48
2017-12-11T12:30:15.544Z,92.52
2017-12-11T12:31:22.724Z,92.54
2017-12-11T12:32:29.424Z,92.50
2017-12-11T12:33:35.941Z,92.53
2017-12-11T12:34:42.843Z,92.54
2017-12-11T12:35:49.653Z,92.55
2017-12-11T12:36:56.756Z,92.55
2017-12-11T12:38:03.304Z,92.58
2017-12-11T12:39:10.491Z,92.64
2017-12-11T12:40:17.680Z,92.69
2017-12-11T12:41:24.316Z,92.70
2017-12-11T12:42:31.577Z,92.72
2017-12-11T12:43:38.760Z,92.70
2017-12-11T12:44:45.524Z,92.70
2017-12-11T12:45:52.745Z,92.67
2017-12-11T12:46:59.899Z,92.67
2017-12-11T12:48:06.668Z,92.67
2017-12-11T12:49:13.690Z,92.66
2017-12-11T12:50:20.816Z,92.64
2017-12-11T12:51:27.964Z,92.65
2017-12-11T12:52:34.927Z,92.67
2017-12-11T12:53:41.910Z,92.65
2017-12-11T12:54:48.877Z,92.68
2017-12-11T12:55:55.949Z,92.66
2017-12-11T12:57:02.920Z,92.65
2017-12-11T12:58:09.875Z,92.66
2017-12-11T12:59:16.572Z,92.67
2017-12-11T13:00:23.704Z,92.72
2017-12-11T13:01:30.797Z,92.74
2017-12-11T13:02:37.740Z,92.71
2017-12-11T13:03:44.825Z,92.71
2017-12-11T13:04:51.743Z,92.73
2017-12-11T13:05:58.869Z,92.73
2017-12-11T13:07:05.352Z,92.75
2017-12-11T13:08:12.347Z,92.74
2017-12-11T13:09:19.272Z,92.75
2017-12-11T13:10:26.123Z,92.77
2017-12-11T13:11:33.127Z,92.74
2017-12-11T13:12:40.110Z,92.77
2017-12-11T13:13:47.058Z,92.75
2017-12-11T13:14:54.001Z,92.78
2017-12-11T13:16:01.101Z,92.77
2017-12-11T13:17:08.353Z,92.79
2017-12-11T13:18:15.271Z,92.77
2017-12-11T13:19:22.302Z,92.78
2017-12-11T13:20:29.513Z,92.77
2017-12-11T13:21:36.548Z,92.76
2017-12-11T13:22:43.428Z,92.75
2017-12-11T13:23:50.268Z,92.77
2017-12-11T13:24:57.168Z,92.79
2017-12-11T13:26:04.301Z,92.78
2017-12-11T13:27:11.380Z,92.80
2017-12-11T13:28:18.478Z,92.80
2017-12-11T13:29:25.563Z,92.79
2017-12-11T13:30:32.502Z,92.80
2017-12-11T13:31:39.919Z,92.80
2017-12-11T13:32:46.541Z,92.82
2017-12-11T13:33:53.648Z,92.81
2017-12-11T13:35:00.841Z,92.82
2017-12-11T13:36:07.333Z,92.84
2017-12-11T13:37:14.317Z,92.84
2017-12-11T13:38:21.343Z,92.87
2017-12-11T13:39:28.262Z,92.88
2017-12-11T13:40:35.273Z,92.90
2017-12-11T13:41:42.337Z,92.89
2017-12-11T13:42:49.387Z,92.90
2017-12-11T13:43:56.261Z,92.92
2017-12-11T13:45:03.402Z,92.92
2017-12-11T13:46:10.412Z,92.94
2017-12-11T13:47:17.358Z,92.94
2017-12-11T13:48:24.340Z,92.92
2017-12-11T13:49:31.400Z,92.95
2017-12-11T13:50:38.235Z,92.93
2017-12-11T13:51:45.264Z,92.92
2017-12-11T13:52:52.239Z,92.93
2017-12-11T13:53:59.212Z,92.94
2017-12-11T13:55:06.132Z,92.91
2017-12-11T13:56:13.128Z,92.89
2017-12-11T13:57:20.181Z,92.88
2017-12-11T13:58:27.220Z,92.88
2017-12-11T13:59:34.369Z,92.89
2017-12-11T14:00:41.358Z,92.87
2017-12-11T14:01:48.301Z,92.86
2017-12-11T14:02:55.490Z,92.81
2017-12-11T14:04:02.314Z,92.80
2017-12-11T14:05:09.284Z,92.82
2017-12-11T14:06:15.853Z,92.82
2017-12-11T14:07:22.836Z,92.76
2017-12-11T14:08:29.916Z,92.78
2017-12-11T14:09:36.875Z,92.76
2017-12-11T14:10:43.740Z,92.76
2017-12-11T14:11:50.748Z,92.72
2017-12-11T14:12:57.768Z,92.76
2017-12-11T14:14:04.668Z,92.75
2017-12-11T14:15:11.616Z,92.77
2017-12-11T14:16:18.486Z,92.76
2017-12-11T14:17:25.449Z,92.74
2017-12-11T14:18:32.416Z,92.72
2017-12-11T14:19:39.357Z,92.72
2017-12-11T14:20:46.340Z,92.70
2017-12-11T14:21:53.148Z,92.70
2017-12-11T14:23:00.128Z,92.70
2017-12-11T14:24:07.199Z,92.65
2017-12-11T14:25:14.073Z,92.66
2017-12-11T14:26:21.094Z,92.66